sensor_id;sensor_type;location;lat;lon;timestamp;P1;durP1;ratioP1;P2;durP2;ratioP2
23754;SDS011;12057;52.042;6.830;2023-04-05T00:00:41;22.87;;;5.97;;
23754;SDS011;12057;52.042;6.830;2023-04-05T00:05:42;19.27;;;5.80;;
23754;SDS011;12057;52.042;6.830;2023-04-05T00:10:44;19.85;;;5.43;;
23754;SDS011;12057;52.042;6.830;2023-04-05T00:15:46;14.00;;;5.03;;
23754;SDS011;12057;52.042;6.830;2023-04-05T00:20:48;18.05;;;6.28;;
23754;SDS011;12057;52.042;6.830;2023-04-05T00:25:52;12.82;;;5.60;;
23754;SDS011;12057;52.042;6.830;2023-04-05T00:30:53;17.67;;;6.13;;
23754;SDS011;12057;52.042;6.830;2023-04-05T00:35:54;12.60;;;5.88;;
23754;SDS011;12057;52.042;6.830;2023-04-05T00:40:55;16.75;;;5.55;;
23754;SDS011;12057;52.042;6.830;2023-04-05T00:45:56;16.20;;;5.65;;
23754;SDS011;12057;52.042;6.830;2023-04-05T00:50:57;22.83;;;6.00;;
23754;SDS011;12057;52.042;6.830;2023-04-05T00:55:58;15.93;;;4.72;;
23754;SDS011;12057;52.042;6.830;2023-04-05T01:01:06;16.95;;;4.82;;
23754;SDS011;12057;52.042;6.830;2023-04-05T01:06:31;15.98;;;5.28;;
23754;SDS011;12057;52.042;6.830;2023-04-05T01:11:42;13.73;;;5.75;;
23754;SDS011;12057;52.042;6.830;2023-04-05T01:16:46;14.93;;;6.60;;
23754;SDS011;12057;52.042;6.830;2023-04-05T01:21:55;17.70;;;6.05;;
23754;SDS011;12057;52.042;6.830;2023-04-05T01:27:21;14.25;;;6.15;;
23754;SDS011;12057;52.042;6.830;2023-04-05T01:38:06;15.60;;;5.90;;
23754;SDS011;12057;52.042;6.830;2023-04-05T01:43:12;17.58;;;6.55;;
23754;SDS011;12057;52.042;6.830;2023-04-05T01:48:14;18.35;;;6.47;;
23754;SDS011;12057;52.042;6.830;2023-04-05T01:53:15;13.90;;;6.20;;
23754;SDS011;12057;52.042;6.830;2023-04-05T01:58:15;15.93;;;6.22;;
23754;SDS011;12057;52.042;6.830;2023-04-05T02:03:16;18.08;;;5.93;;
23754;SDS011;12057;52.042;6.830;2023-04-05T02:08:17;16.48;;;5.45;;
23754;SDS011;12057;52.042;6.830;2023-04-05T02:13:18;13.57;;;6.40;;
23754;SDS011;12057;52.042;6.830;2023-04-05T02:18:21;17.88;;;6.45;;
23754;SDS011;12057;52.042;6.830;2023-04-05T02:23:21;16.25;;;7.13;;
23754;SDS011;12057;52.042;6.830;2023-04-05T02:28:22;24.33;;;7.28;;
23754;SDS011;12057;52.042;6.830;2023-04-05T02:33:23;16.88;;;6.45;;
23754;SDS011;12057;52.042;6.830;2023-04-05T02:38:24;15.73;;;6.70;;
23754;SDS011;12057;52.042;6.830;2023-04-05T02:43:25;16.95;;;6.75;;
23754;SDS011;12057;52.042;6.830;2023-04-05T02:48:26;15.30;;;6.20;;
23754;SDS011;12057;52.042;6.830;2023-04-05T02:53:27;18.92;;;6.35;;
23754;SDS011;12057;52.042;6.830;2023-04-05T02:58:28;30.92;;;6.97;;
23754;SDS011;12057;52.042;6.830;2023-04-05T03:03:28;15.80;;;5.32;;
23754;SDS011;12057;52.042;6.830;2023-04-05T03:08:29;16.50;;;6.35;;
23754;SDS011;12057;52.042;6.830;2023-04-05T03:13:31;15.85;;;6.50;;
23754;SDS011;12057;52.042;6.830;2023-04-05T03:18:32;18.88;;;5.63;;
23754;SDS011;12057;52.042;6.830;2023-04-05T03:23:33;35.85;;;12.55;;
23754;SDS011;12057;52.042;6.830;2023-04-05T03:28:34;22.73;;;9.18;;
23754;SDS011;12057;52.042;6.830;2023-04-05T03:33:34;25.50;;;8.45;;
23754;SDS011;12057;52.042;6.830;2023-04-05T03:38:35;20.80;;;8.35;;
23754;SDS011;12057;52.042;6.830;2023-04-05T03:43:36;15.75;;;6.90;;
23754;SDS011;12057;52.042;6.830;2023-04-05T03:48:37;15.02;;;6.30;;
23754;SDS011;12057;52.042;6.830;2023-04-05T03:53:38;13.60;;;5.55;;
23754;SDS011;12057;52.042;6.830;2023-04-05T03:58:39;18.73;;;6.03;;
23754;SDS011;12057;52.042;6.830;2023-04-05T04:03:40;13.10;;;5.55;;
23754;SDS011;12057;52.042;6.830;2023-04-05T04:08:41;19.00;;;6.22;;
23754;SDS011;12057;52.042;6.830;2023-04-05T04:13:42;19.88;;;8.27;;
23754;SDS011;12057;52.042;6.830;2023-04-05T04:18:42;23.90;;;8.07;;
23754;SDS011;12057;52.042;6.830;2023-04-05T04:28:45;21.88;;;6.68;;
23754;SDS011;12057;52.042;6.830;2023-04-05T04:33:50;27.20;;;6.72;;
23754;SDS011;12057;52.042;6.830;2023-04-05T04:38:52;14.82;;;7.03;;
23754;SDS011;12057;52.042;6.830;2023-04-05T04:43:53;20.92;;;7.97;;
23754;SDS011;12057;52.042;6.830;2023-04-05T04:48:57;21.33;;;8.20;;
23754;SDS011;12057;52.042;6.830;2023-04-05T04:54:01;19.40;;;7.00;;
23754;SDS011;12057;52.042;6.830;2023-04-05T04:59:02;16.73;;;6.95;;
23754;SDS011;12057;52.042;6.830;2023-04-05T05:04:03;19.27;;;7.47;;
23754;SDS011;12057;52.042;6.830;2023-04-05T05:09:03;19.50;;;7.63;;
23754;SDS011;12057;52.042;6.830;2023-04-05T05:14:04;19.10;;;8.13;;
23754;SDS011;12057;52.042;6.830;2023-04-05T05:19:11;22.48;;;8.13;;
23754;SDS011;12057;52.042;6.830;2023-04-05T05:24:12;29.65;;;9.35;;
23754;SDS011;12057;52.042;6.830;2023-04-05T05:29:13;24.45;;;8.35;;
23754;SDS011;12057;52.042;6.830;2023-04-05T05:39:18;19.77;;;8.77;;
23754;SDS011;12057;52.042;6.830;2023-04-05T05:44:19;25.17;;;8.90;;
23754;SDS011;12057;52.042;6.830;2023-04-05T05:49:20;34.58;;;10.20;;
23754;SDS011;12057;52.042;6.830;2023-04-05T05:54:22;34.80;;;10.75;;
23754;SDS011;12057;52.042;6.830;2023-04-05T05:59:24;29.90;;;10.07;;
23754;SDS011;12057;52.042;6.830;2023-04-05T06:04:25;26.67;;;10.23;;
23754;SDS011;12057;52.042;6.830;2023-04-05T06:09:26;21.50;;;9.82;;
23754;SDS011;12057;52.042;6.830;2023-04-05T06:14:28;32.47;;;9.80;;
23754;SDS011;12057;52.042;6.830;2023-04-05T06:19:28;25.30;;;9.27;;
23754;SDS011;12057;52.042;6.830;2023-04-05T06:24:29;27.38;;;9.60;;
23754;SDS011;12057;52.042;6.830;2023-04-05T06:34:31;27.53;;;9.17;;
23754;SDS011;12057;52.042;6.830;2023-04-05T06:39:32;20.63;;;8.57;;
23754;SDS011;12057;52.042;6.830;2023-04-05T06:44:33;19.65;;;7.50;;
23754;SDS011;12057;52.042;6.830;2023-04-05T06:49:34;19.33;;;8.05;;
23754;SDS011;12057;52.042;6.830;2023-04-05T06:54:38;26.50;;;9.02;;
23754;SDS011;12057;52.042;6.830;2023-04-05T06:59:39;23.15;;;7.13;;
23754;SDS011;12057;52.042;6.830;2023-04-05T07:04:39;18.27;;;6.73;;
23754;SDS011;12057;52.042;6.830;2023-04-05T07:09:40;17.20;;;7.13;;
23754;SDS011;12057;52.042;6.830;2023-04-05T07:14:41;25.10;;;7.13;;
23754;SDS011;12057;52.042;6.830;2023-04-05T07:19:42;15.63;;;6.37;;
23754;SDS011;12057;52.042;6.830;2023-04-05T07:24:45;35.47;;;7.53;;
23754;SDS011;12057;52.042;6.830;2023-04-05T07:29:47;17.85;;;6.97;;
23754;SDS011;12057;52.042;6.830;2023-04-05T07:34:48;17.00;;;6.27;;
23754;SDS011;12057;52.042;6.830;2023-04-05T07:39:49;23.80;;;5.97;;
23754;SDS011;12057;52.042;6.830;2023-04-05T07:44:50;11.67;;;4.83;;
23754;SDS011;12057;52.042;6.830;2023-04-05T07:49:51;48.23;;;11.50;;
23754;SDS011;12057;52.042;6.830;2023-04-05T07:54:51;19.97;;;5.03;;
23754;SDS011;12057;52.042;6.830;2023-04-05T07:59:53;12.70;;;5.25;;
23754;SDS011;12057;52.042;6.830;2023-04-05T08:04:54;15.75;;;5.63;;
23754;SDS011;12057;52.042;6.830;2023-04-05T08:09:55;13.83;;;4.63;;
23754;SDS011;12057;52.042;6.830;2023-04-05T08:14:58;13.95;;;4.35;;
23754;SDS011;12057;52.042;6.830;2023-04-05T08:19:59;15.53;;;3.93;;
23754;SDS011;12057;52.042;6.830;2023-04-05T08:24:59;14.50;;;4.80;;
23754;SDS011;12057;52.042;6.830;2023-04-05T08:30:00;14.60;;;4.30;;
23754;SDS011;12057;52.042;6.830;2023-04-05T08:35:01;13.03;;;4.30;;
23754;SDS011;12057;52.042;6.830;2023-04-05T08:40:02;31.30;;;5.27;;
23754;SDS011;12057;52.042;6.830;2023-04-05T08:45:04;12.23;;;4.90;;
23754;SDS011;12057;52.042;6.830;2023-04-05T08:50:09;9.90;;;5.03;;
23754;SDS011;12057;52.042;6.830;2023-04-05T08:55:12;14.25;;;5.10;;
23754;SDS011;12057;52.042;6.830;2023-04-05T09:00:13;10.67;;;4.13;;
23754;SDS011;12057;52.042;6.830;2023-04-05T09:05:15;11.65;;;3.83;;
23754;SDS011;12057;52.042;6.830;2023-04-05T09:10:17;15.57;;;3.22;;
23754;SDS011;12057;52.042;6.830;2023-04-05T09:15:22;10.07;;;3.97;;
23754;SDS011;12057;52.042;6.830;2023-04-05T09:20:25;13.13;;;4.65;;
23754;SDS011;12057;52.042;6.830;2023-04-05T09:25:33;11.83;;;4.10;;
23754;SDS011;12057;52.042;6.830;2023-04-05T09:30:37;44.43;;;5.67;;
23754;SDS011;12057;52.042;6.830;2023-04-05T09:35:44;5.80;;;3.22;;
23754;SDS011;12057;52.042;6.830;2023-04-05T09:40:50;9.10;;;3.05;;
23754;SDS011;12057;52.042;6.830;2023-04-05T09:45:51;7.90;;;3.38;;
23754;SDS011;12057;52.042;6.830;2023-04-05T09:50:59;9.13;;;3.57;;
23754;SDS011;12057;52.042;6.830;2023-04-05T09:56:08;12.65;;;2.83;;
23754;SDS011;12057;52.042;6.830;2023-04-05T10:01:12;8.75;;;2.92;;
23754;SDS011;12057;52.042;6.830;2023-04-05T10:06:14;8.27;;;2.60;;
23754;SDS011;12057;52.042;6.830;2023-04-05T10:11:17;6.72;;;2.47;;
23754;SDS011;12057;52.042;6.830;2023-04-05T10:16:19;5.18;;;2.50;;
23754;SDS011;12057;52.042;6.830;2023-04-05T10:21:23;10.02;;;2.50;;
23754;SDS011;12057;52.042;6.830;2023-04-05T10:26:38;8.90;;;2.47;;
23754;SDS011;12057;52.042;6.830;2023-04-05T10:31:49;8.48;;;2.50;;
23754;SDS011;12057;52.042;6.830;2023-04-05T10:36:58;6.97;;;2.33;;
23754;SDS011;12057;52.042;6.830;2023-04-05T10:42:05;6.15;;;2.40;;
23754;SDS011;12057;52.042;6.830;2023-04-05T10:47:12;8.57;;;2.78;;
23754;SDS011;12057;52.042;6.830;2023-04-05T10:52:16;9.70;;;2.85;;
23754;SDS011;12057;52.042;6.830;2023-04-05T10:57:17;10.33;;;2.60;;
23754;SDS011;12057;52.042;6.830;2023-04-05T11:02:19;4.47;;;2.40;;
23754;SDS011;12057;52.042;6.830;2023-04-05T11:07:21;9.20;;;3.13;;
23754;SDS011;12057;52.042;6.830;2023-04-05T11:17:56;6.00;;;2.00;;
23754;SDS011;12057;52.042;6.830;2023-04-05T11:23:00;7.68;;;2.95;;
23754;SDS011;12057;52.042;6.830;2023-04-05T11:28:01;8.87;;;4.23;;
23754;SDS011;12057;52.042;6.830;2023-04-05T11:33:06;9.30;;;2.78;;
23754;SDS011;12057;52.042;6.830;2023-04-05T11:38:07;11.40;;;2.75;;
23754;SDS011;12057;52.042;6.830;2023-04-05T11:43:09;5.77;;;2.87;;
23754;SDS011;12057;52.042;6.830;2023-04-05T11:48:11;9.77;;;3.28;;
23754;SDS011;12057;52.042;6.830;2023-04-05T11:53:14;7.28;;;2.60;;
23754;SDS011;12057;52.042;6.830;2023-04-05T11:58:16;9.85;;;2.58;;
23754;SDS011;12057;52.042;6.830;2023-04-05T12:03:21;8.38;;;3.00;;
23754;SDS011;12057;52.042;6.830;2023-04-05T12:08:22;4.77;;;2.47;;
23754;SDS011;12057;52.042;6.830;2023-04-05T12:13:36;8.93;;;3.03;;
23754;SDS011;12057;52.042;6.830;2023-04-05T12:23:38;10.10;;;3.08;;
23754;SDS011;12057;52.042;6.830;2023-04-05T12:28:52;20.40;;;9.17;;
23754;SDS011;12057;52.042;6.830;2023-04-05T12:33:58;9.05;;;3.20;;
23754;SDS011;12057;52.042;6.830;2023-04-05T12:44:16;11.80;;;2.87;;
23754;SDS011;12057;52.042;6.830;2023-04-05T12:49:34;8.48;;;3.90;;
23754;SDS011;12057;52.042;6.830;2023-04-05T12:54:37;8.45;;;3.22;;
23754;SDS011;12057;52.042;6.830;2023-04-05T12:59:38;8.13;;;3.03;;
23754;SDS011;12057;52.042;6.830;2023-04-05T13:04:38;9.03;;;3.20;;
23754;SDS011;12057;52.042;6.830;2023-04-05T13:09:42;13.70;;;3.13;;
23754;SDS011;12057;52.042;6.830;2023-04-05T13:14:46;7.20;;;3.10;;
23754;SDS011;12057;52.042;6.830;2023-04-05T13:19:47;6.65;;;3.22;;
23754;SDS011;12057;52.042;6.830;2023-04-05T13:24:48;6.17;;;3.17;;
23754;SDS011;12057;52.042;6.830;2023-04-05T13:29:49;8.27;;;2.80;;
23754;SDS011;12057;52.042;6.830;2023-04-05T13:34:49;4.80;;;2.43;;
23754;SDS011;12057;52.042;6.830;2023-04-05T13:39:50;5.23;;;2.87;;
23754;SDS011;12057;52.042;6.830;2023-04-05T13:44:51;9.20;;;2.73;;
23754;SDS011;12057;52.042;6.830;2023-04-05T13:49:52;9.23;;;2.97;;
23754;SDS011;12057;52.042;6.830;2023-04-05T13:54:52;10.23;;;2.60;;
23754;SDS011;12057;52.042;6.830;2023-04-05T13:59:53;6.07;;;2.50;;
23754;SDS011;12057;52.042;6.830;2023-04-05T14:04:54;9.63;;;3.10;;
23754;SDS011;12057;52.042;6.830;2023-04-05T14:09:55;5.40;;;2.70;;
23754;SDS011;12057;52.042;6.830;2023-04-05T14:14:56;16.13;;;3.80;;
23754;SDS011;12057;52.042;6.830;2023-04-05T14:19:59;5.90;;;2.92;;
23754;SDS011;12057;52.042;6.830;2023-04-05T14:24:59;21.27;;;3.97;;
23754;SDS011;12057;52.042;6.830;2023-04-05T14:30:01;11.43;;;3.03;;
23754;SDS011;12057;52.042;6.830;2023-04-05T14:35:01;5.97;;;2.67;;
23754;SDS011;12057;52.042;6.830;2023-04-05T14:40:02;6.30;;;3.00;;
23754;SDS011;12057;52.042;6.830;2023-04-05T14:45:03;6.40;;;3.03;;
23754;SDS011;12057;52.042;6.830;2023-04-05T14:50:05;11.10;;;5.47;;
23754;SDS011;12057;52.042;6.830;2023-04-05T14:55:09;11.88;;;3.20;;
23754;SDS011;12057;52.042;6.830;2023-04-05T15:00:12;7.38;;;3.30;;
23754;SDS011;12057;52.042;6.830;2023-04-05T15:05:13;9.02;;;3.35;;
23754;SDS011;12057;52.042;6.830;2023-04-05T15:10:14;19.17;;;2.80;;
23754;SDS011;12057;52.042;6.830;2023-04-05T15:15:17;8.20;;;3.22;;
23754;SDS011;12057;52.042;6.830;2023-04-05T15:20:21;7.53;;;3.20;;
23754;SDS011;12057;52.042;6.830;2023-04-05T15:25:22;6.53;;;2.80;;
23754;SDS011;12057;52.042;6.830;2023-04-05T15:30:23;8.43;;;3.73;;
23754;SDS011;12057;52.042;6.830;2023-04-05T15:35:24;8.20;;;3.80;;
23754;SDS011;12057;52.042;6.830;2023-04-05T15:40:25;5.40;;;3.07;;
23754;SDS011;12057;52.042;6.830;2023-04-05T15:45:26;10.17;;;3.43;;
23754;SDS011;12057;52.042;6.830;2023-04-05T15:50:27;13.32;;;3.50;;
23754;SDS011;12057;52.042;6.830;2023-04-05T15:55:28;13.40;;;3.63;;
23754;SDS011;12057;52.042;6.830;2023-04-05T16:00:29;9.77;;;3.17;;
23754;SDS011;12057;52.042;6.830;2023-04-05T16:05:32;7.03;;;3.15;;
23754;SDS011;12057;52.042;6.830;2023-04-05T16:10:33;7.70;;;2.87;;
23754;SDS011;12057;52.042;6.830;2023-04-05T16:15:34;42.73;;;3.87;;
23754;SDS011;12057;52.042;6.830;2023-04-05T16:20:35;9.40;;;4.03;;
23754;SDS011;12057;52.042;6.830;2023-04-05T16:25:36;9.35;;;3.60;;
23754;SDS011;12057;52.042;6.830;2023-04-05T16:30:37;8.40;;;3.27;;
23754;SDS011;12057;52.042;6.830;2023-04-05T16:35:38;7.77;;;3.57;;
23754;SDS011;12057;52.042;6.830;2023-04-05T16:40:38;10.30;;;3.87;;
23754;SDS011;12057;52.042;6.830;2023-04-05T16:45:39;11.17;;;3.80;;
23754;SDS011;12057;52.042;6.830;2023-04-05T16:50:41;7.40;;;3.38;;
23754;SDS011;12057;52.042;6.830;2023-04-05T16:55:41;13.40;;;3.67;;
23754;SDS011;12057;52.042;6.830;2023-04-05T17:00:42;16.17;;;4.10;;
23754;SDS011;12057;52.042;6.830;2023-04-05T17:05:43;25.73;;;14.37;;
23754;SDS011;12057;52.042;6.830;2023-04-05T17:10:44;29.90;;;9.50;;
23754;SDS011;12057;52.042;6.830;2023-04-05T17:15:45;16.33;;;5.63;;
23754;SDS011;12057;52.042;6.830;2023-04-05T17:20:47;20.52;;;7.55;;
23754;SDS011;12057;52.042;6.830;2023-04-05T17:25:48;12.93;;;4.73;;
23754;SDS011;12057;52.042;6.830;2023-04-05T17:30:52;11.57;;;3.70;;
23754;SDS011;12057;52.042;6.830;2023-04-05T17:35:53;13.00;;;5.10;;
23754;SDS011;12057;52.042;6.830;2023-04-05T17:40:54;46.65;;;12.82;;
23754;SDS011;12057;52.042;6.830;2023-04-05T17:45:56;22.30;;;6.53;;
23754;SDS011;12057;52.042;6.830;2023-04-05T17:50:57;14.03;;;4.73;;
23754;SDS011;12057;52.042;6.830;2023-04-05T17:56:04;9.07;;;4.10;;
23754;SDS011;12057;52.042;6.830;2023-04-05T18:01:05;11.90;;;4.70;;
23754;SDS011;12057;52.042;6.830;2023-04-05T18:06:06;12.77;;;4.40;;
23754;SDS011;12057;52.042;6.830;2023-04-05T18:11:10;19.50;;;4.13;;
23754;SDS011;12057;52.042;6.830;2023-04-05T18:16:11;9.50;;;4.18;;
23754;SDS011;12057;52.042;6.830;2023-04-05T18:21:12;7.97;;;3.83;;
23754;SDS011;12057;52.042;6.830;2023-04-05T18:26:12;14.10;;;5.13;;
23754;SDS011;12057;52.042;6.830;2023-04-05T18:31:20;13.27;;;5.22;;
23754;SDS011;12057;52.042;6.830;2023-04-05T18:36:21;16.80;;;7.57;;
23754;SDS011;12057;52.042;6.830;2023-04-05T18:41:28;18.42;;;8.27;;
23754;SDS011;12057;52.042;6.830;2023-04-05T18:46:29;32.65;;;10.55;;
23754;SDS011;12057;52.042;6.830;2023-04-05T18:51:29;29.03;;;9.67;;
23754;SDS011;12057;52.042;6.830;2023-04-05T18:56:31;20.45;;;8.80;;
23754;SDS011;12057;52.042;6.830;2023-04-05T19:01:32;21.80;;;9.37;;
23754;SDS011;12057;52.042;6.830;2023-04-05T19:06:32;14.13;;;8.17;;
23754;SDS011;12057;52.042;6.830;2023-04-05T19:11:33;17.30;;;7.65;;
23754;SDS011;12057;52.042;6.830;2023-04-05T19:16:34;29.87;;;8.97;;
23754;SDS011;12057;52.042;6.830;2023-04-05T19:21:35;32.00;;;10.53;;
23754;SDS011;12057;52.042;6.830;2023-04-05T19:26:36;27.30;;;10.63;;
23754;SDS011;12057;52.042;6.830;2023-04-05T19:31:37;23.77;;;10.23;;
23754;SDS011;12057;52.042;6.830;2023-04-05T19:36:38;27.10;;;10.07;;
23754;SDS011;12057;52.042;6.830;2023-04-05T19:41:40;18.08;;;8.43;;
23754;SDS011;12057;52.042;6.830;2023-04-05T19:46:40;17.87;;;8.37;;
23754;SDS011;12057;52.042;6.830;2023-04-05T19:51:41;27.60;;;10.10;;
23754;SDS011;12057;52.042;6.830;2023-04-05T19:56:42;25.50;;;9.67;;
23754;SDS011;12057;52.042;6.830;2023-04-05T20:01:43;25.00;;;7.65;;
23754;SDS011;12057;52.042;6.830;2023-04-05T20:06:47;20.75;;;9.07;;
23754;SDS011;12057;52.042;6.830;2023-04-05T20:11:56;25.80;;;9.88;;
23754;SDS011;12057;52.042;6.830;2023-04-05T20:16:58;51.05;;;15.98;;
23754;SDS011;12057;52.042;6.830;2023-04-05T20:22:00;60.03;;;21.37;;
23754;SDS011;12057;52.042;6.830;2023-04-05T20:27:01;67.45;;;22.23;;
23754;SDS011;12057;52.042;6.830;2023-04-05T20:32:03;49.80;;;16.92;;
23754;SDS011;12057;52.042;6.830;2023-04-05T20:37:05;33.97;;;13.30;;
23754;SDS011;12057;52.042;6.830;2023-04-05T20:42:08;34.45;;;11.88;;
23754;SDS011;12057;52.042;6.830;2023-04-05T20:47:10;28.17;;;12.15;;
23754;SDS011;12057;52.042;6.830;2023-04-05T20:52:11;30.47;;;10.53;;
23754;SDS011;12057;52.042;6.830;2023-04-05T20:57:12;19.98;;;9.13;;
23754;SDS011;12057;52.042;6.830;2023-04-05T21:02:13;30.08;;;11.05;;
23754;SDS011;12057;52.042;6.830;2023-04-05T21:07:20;30.80;;;11.07;;
23754;SDS011;12057;52.042;6.830;2023-04-05T21:12:49;36.65;;;11.85;;
23754;SDS011;12057;52.042;6.830;2023-04-05T21:17:54;32.60;;;12.15;;
23754;SDS011;12057;52.042;6.830;2023-04-05T21:22:55;29.80;;;9.90;;
23754;SDS011;12057;52.042;6.830;2023-04-05T21:28:00;31.60;;;11.48;;
23754;SDS011;12057;52.042;6.830;2023-04-05T21:33:00;41.78;;;12.60;;
23754;SDS011;12057;52.042;6.830;2023-04-05T21:38:01;33.27;;;12.23;;
23754;SDS011;12057;52.042;6.830;2023-04-05T21:43:02;37.40;;;12.48;;
23754;SDS011;12057;52.042;6.830;2023-04-05T21:48:03;31.58;;;11.95;;
23754;SDS011;12057;52.042;6.830;2023-04-05T21:53:04;22.85;;;10.05;;
23754;SDS011;12057;52.042;6.830;2023-04-05T21:58:06;24.95;;;9.60;;
23754;SDS011;12057;52.042;6.830;2023-04-05T22:03:07;22.50;;;8.32;;
23754;SDS011;12057;52.042;6.830;2023-04-05T22:08:07;24.98;;;8.75;;
23754;SDS011;12057;52.042;6.830;2023-04-05T22:13:08;35.75;;;9.02;;
23754;SDS011;12057;52.042;6.830;2023-04-05T22:18:09;23.52;;;9.13;;
23754;SDS011;12057;52.042;6.830;2023-04-05T22:23:10;24.10;;;9.00;;
23754;SDS011;12057;52.042;6.830;2023-04-05T22:28:11;18.30;;;7.75;;
23754;SDS011;12057;52.042;6.830;2023-04-05T22:33:12;22.10;;;8.68;;
23754;SDS011;12057;52.042;6.830;2023-04-05T22:38:12;16.05;;;7.82;;
23754;SDS011;12057;52.042;6.830;2023-04-05T22:43:13;29.13;;;8.68;;
23754;SDS011;12057;52.042;6.830;2023-04-05T22:48:14;16.58;;;7.55;;
23754;SDS011;12057;52.042;6.830;2023-04-05T22:53:15;28.03;;;8.50;;
23754;SDS011;12057;52.042;6.830;2023-04-05T22:58:16;29.05;;;8.63;;
23754;SDS011;12057;52.042;6.830;2023-04-05T23:03:18;19.33;;;8.00;;
23754;SDS011;12057;52.042;6.830;2023-04-05T23:13:20;27.67;;;10.90;;
23754;SDS011;12057;52.042;6.830;2023-04-05T23:18:21;39.63;;;12.27;;
23754;SDS011;12057;52.042;6.830;2023-04-05T23:23:22;28.10;;;10.20;;
23754;SDS011;12057;52.042;6.830;2023-04-05T23:28:23;42.10;;;11.35;;
23754;SDS011;12057;52.042;6.830;2023-04-05T23:33:23;32.70;;;10.50;;
23754;SDS011;12057;52.042;6.830;2023-04-05T23:38:24;20.02;;;9.93;;
23754;SDS011;12057;52.042;6.830;2023-04-05T23:43:25;25.08;;;9.68;;
23754;SDS011;12057;52.042;6.830;2023-04-05T23:48:26;30.25;;;11.15;;
23754;SDS011;12057;52.042;6.830;2023-04-05T23:53:30;31.60;;;10.77;;
23754;SDS011;12057;52.042;6.830;2023-04-05T23:58:30;26.00;;;10.70;;
